Weather reports worldwide

Advertisment
Martina Franca, Italy (16318): temperature & dewpoint: 13.11.2019 19:00:00 - 19.11.2019 19:00:00 (CET)Martina Franca, Italy (16318): wind speed: 13.11.2019 19:00:00 - 19.11.2019 19:00:00 (CET)Martina Franca, Italy (16318): wind direction: 13.11.2019 19:00:00 - 19.11.2019 19:00:00 (CET)Martina Franca, Italy (16318): reduced air pressure: 13.11.2019 19:00:00 - 19.11.2019 19:00:00 (CET)Martina Franca, Italy (16318): precipitation: 13.11.2019 19:00:00 - 19.11.2019 19:00:00 (CET)
Date & Time tt [°C] td [°C] ff [km/h] ff [kn] dd ppp [hPa] rr [mm]
19.11.2019 19:00:00 - - - - - - -
19.11.2019 18:00:00 12,4 10,4 2 1 S 1015,9 -
19.11.2019 17:00:00 13,0 11,5 0 0 N 1016,4 -
19.11.2019 16:00:00 13,7 11,9 4 2 S 1016,5 -
19.11.2019 15:00:00 14,6 12,3 11 6 S 1016,5 -
19.11.2019 14:00:00 15,0 12,1 11 6 S 1016,7 -
19.11.2019 13:00:00 16,3 14,1 15 8 S 1017,0 0,0
19.11.2019 12:00:00 14,6 13,1 11 6 S 1017,5 -
19.11.2019 11:00:00 15,1 13,7 13 7 S 1018,5 -
19.11.2019 10:00:00 14,3 13,6 9 5 N 1018,9 -
19.11.2019 09:00:00 12,3 11,7 5 3 ENE 1019,4 -
19.11.2019 08:00:00 11,6 10,8 8 4 S 1019,6 -
19.11.2019 07:00:00 11,5 10,7 8 4 NNW 1019,6 -
19.11.2019 06:00:00 11,9 11,0 9 5 W 1019,1 -
19.11.2019 05:00:00 11,0 10,1 11 6 SSE 1019,0 -
19.11.2019 04:00:00 11,4 10,1 9 5 NW 1019,2 -
19.11.2019 03:00:00 11,9 10,5 9 5 N 1019,4 -
19.11.2019 02:00:00 11,8 10,4 9 5 SSW 1019,6 -
19.11.2019 01:00:00 11,5 10,2 13 7 SSE 1019,6 -
19.11.2019 00:00:00 11,2 10,1 13 7 W 1019,8 -
18.11.2019 23:00:00 11,4 10,3 8 4 N 1020,0 -
18.11.2019 22:00:00 11,5 10,6 8 4 ENE 1019,9 -
18.11.2019 21:00:00 11,3 10,0 8 4 NW 1020,0 -
18.11.2019 20:00:00 11,5 10,1 5 3 E 1019,8 -
18.11.2019 19:00:00 10,7 8,8 2 1 NW 1020,1 -
18.11.2019 18:00:00 10,7 8,4 2 1 E 1019,8 -
18.11.2019 17:00:00 11,0 6,5 2 1 ESE 1019,6 -
18.11.2019 16:00:00 15,0 7,7 4 2 S 1018,6 -
18.11.2019 15:00:00 16,3 8,0 8 4 WSW 1018,1 -
18.11.2019 14:00:00 17,3 9,9 9 5 SSW 1017,7 -
18.11.2019 13:00:00 16,6 8,0 9 5 S 1017,9 -
18.11.2019 12:00:00 16,1 9,0 4 2 S 1018,2 -
18.11.2019 11:00:00 14,4 10,0 4 2 SW 1018,5 -
18.11.2019 10:00:00 12,5 10,9 5 3 S - -
18.11.2019 09:00:00 9,2 8,4 5 3 SW 1018,7 -
18.11.2019 08:00:00 7,2 6,4 4 2 SE 1018,4 -
18.11.2019 07:00:00 7,1 6,3 5 3 W - -
18.11.2019 06:00:00 6,9 6,1 11 6 WSW 1016,6 -
18.11.2019 05:00:00 6,9 6,1 5 3 SSW 1015,9 -
18.11.2019 04:00:00 6,9 6,1 8 4 SSW 1015,3 -
18.11.2019 03:00:00 6,6 5,7 5 3 WSW 1015,1 -
18.11.2019 02:00:00 7,7 6,9 5 3 SW 1014,5 -
18.11.2019 01:00:00 8,3 7,5 8 4 WNW 1013,6 -
18.11.2019 00:00:00 8,7 7,9 13 7 WSW 1013,7 -
17.11.2019 23:00:00 9,5 8,7 15 8 WSW 1012,4 -
17.11.2019 22:00:00 9,3 8,5 5 3 W 1012,2 -
17.11.2019 21:00:00 9,8 9,0 11 6 WSW 1012,1 -
17.11.2019 20:00:00 10,5 9,9 5 3 SSW 1011,5 -
17.11.2019 19:00:00 10,1 9,3 4 2 W 1011,7 -
17.11.2019 18:00:00 10,2 9,1 16 9 NW 1011,3 -
17.11.2019 17:00:00 12,2 10,4 15 8 NW 1010,0 -
17.11.2019 16:00:00 16,2 15,3 42 23 S 1008,9 -
17.11.2019 15:00:00 17,3 15,8 42 23 S 1008,7 -
17.11.2019 14:00:00 17,7 15,6 41 22 S 1008,4 -
17.11.2019 13:00:00 17,6 15,3 35 19 S 1009,1 -
17.11.2019 12:00:00 17,8 15,5 42 23 S 1009,4 -
17.11.2019 11:00:00 18,0 15,9 37 20 S 1010,7 -
17.11.2019 10:00:00 16,9 15,0 37 20 S 1011,6 -
17.11.2019 09:00:00 15,8 14,6 34 18 S 1012,1 -
17.11.2019 08:00:00 15,2 14,0 29 16 S 1012,6 -
17.11.2019 07:00:00 14,9 14,4 28 15 S 1012,7 -
17.11.2019 06:00:00 14,8 14,3 28 15 S 1012,6 -
17.11.2019 05:00:00 14,5 13,8 22 12 S 1012,8 -
17.11.2019 04:00:00 14,4 13,6 13 7 SSW 1013,3 -
17.11.2019 03:00:00 14,8 14,1 15 8 SW 1013,8 -
17.11.2019 02:00:00 14,9 14,2 15 8 NE 1013,8 -
17.11.2019 01:00:00 15,2 14,7 16 9 S 1014,0 -
17.11.2019 00:00:00 15,4 15,0 22 12 S 1014,3 -
16.11.2019 23:00:00 15,6 15,2 28 15 S 1014,3 -
16.11.2019 22:00:00 15,8 15,4 28 15 S 1014,5 -
16.11.2019 21:00:00 15,6 15,2 31 17 S 1014,3 -
16.11.2019 20:00:00 15,5 15,0 26 14 S 1014,4 -
16.11.2019 19:00:00 15,5 15,0 29 16 S 1014,5 0,0
16.11.2019 18:00:00 15,4 14,7 29 16 SE 1014,6 -
16.11.2019 17:00:00 15,6 14,7 37 20 S 1013,8 -
16.11.2019 16:00:00 16,1 14,9 29 16 S 1014,1 -
16.11.2019 15:00:00 17,6 15,7 34 18 S 1014,3 -
16.11.2019 14:00:00 16,4 14,9 28 15 S 1015,0 -
16.11.2019 13:00:00 16,8 15,1 22 12 S 1015,5 -
16.11.2019 12:00:00 17,0 14,8 29 16 S 1015,8 -
16.11.2019 11:00:00 16,7 15,5 29 16 S 1016,6 -
16.11.2019 10:00:00 16,6 15,7 24 13 S 1017,1 -
16.11.2019 09:00:00 16,2 15,8 28 15 S 1017,1 -
16.11.2019 08:00:00 15,8 15,4 15 8 NE 1017,0 -
16.11.2019 07:00:00 15,8 15,4 24 13 S 1016,6 -
16.11.2019 06:00:00 15,9 15,5 24 13 NNE 1015,9 -
16.11.2019 05:00:00 15,8 15,3 15 8 SE 1015,9 -
16.11.2019 04:00:00 15,9 15,2 22 12 ENE 1016,1 -
16.11.2019 03:00:00 15,7 14,3 16 9 S 1016,1 -
16.11.2019 02:00:00 15,8 14,1 16 9 NE 1016,1 -
16.11.2019 01:00:00 15,7 14,2 18 10 NNW 1015,9 -
16.11.2019 00:00:00 15,8 14,4 21 11 E 1015,6 -
15.11.2019 23:00:00 15,7 14,7 24 13 S 1015,3 -
15.11.2019 22:00:00 15,5 14,1 26 14 S 1015,0 -
15.11.2019 21:00:00 15,8 15,1 28 15 S 1014,7 -
15.11.2019 20:00:00 15,9 15,4 29 16 S 1014,0 -
15.11.2019 19:00:00 15,8 15,3 26 14 WSW 1014,1 -
15.11.2019 18:00:00 15,6 14,9 37 20 S 1013,3 -
15.11.2019 17:00:00 15,0 13,8 28 15 SSW 1012,5 -
15.11.2019 16:00:00 15,4 14,2 35 19 S 1012,1 -
15.11.2019 15:00:00 15,3 13,6 35 19 S 1012,0 -
15.11.2019 14:00:00 15,9 13,5 31 17 S 1011,8 -
15.11.2019 13:00:00 15,0 13,0 31 17 W 1012,0 -
15.11.2019 12:00:00 15,7 12,6 34 18 SSW 1011,9 -
15.11.2019 11:00:00 14,9 12,6 28 15 S 1012,5 -
15.11.2019 10:00:00 15,5 14,5 22 12 SSE 1012,5 -
15.11.2019 09:00:00 13,6 13,2 22 12 S 1012,9 -
15.11.2019 08:00:00 12,2 11,7 13 7 NW 1012,4 -
15.11.2019 07:00:00 11,9 11,3 11 6 NE 1012,4 -
15.11.2019 06:00:00 12,1 11,5 13 7 W 1011,9 -
15.11.2019 05:00:00 11,8 11,2 13 7 S 1011,9 -
15.11.2019 04:00:00 12,0 11,2 13 7 SSE 1011,7 -
15.11.2019 03:00:00 12,1 11,2 9 5 SSW 1011,8 -
15.11.2019 02:00:00 11,9 10,8 8 4 NNW 1011,8 -
15.11.2019 01:00:00 11,9 10,8 11 6 SSE 1011,8 -
15.11.2019 00:00:00 11,8 10,5 9 5 SE 1011,8 -
14.11.2019 23:00:00 11,6 10,7 9 5 SSE 1012,1 -
14.11.2019 22:00:00 10,0 9,1 4 2 N 1012,4 -
14.11.2019 21:00:00 10,0 8,9 2 1 NNE 1012,2 -
14.11.2019 20:00:00 9,3 8,1 4 2 NNE 1011,9 -
14.11.2019 19:00:00 9,4 7,8 2 1 NNE 1011,7 -
14.11.2019 18:00:00 10,7 8,4 2 1 ENE 1011,3 -
14.11.2019 17:00:00 12,1 8,0 4 2 SSW 1010,7 -
14.11.2019 16:00:00 15,7 9,5 11 6 S 1009,7 -
14.11.2019 15:00:00 15,6 8,5 8 4 S 1009,4 -
14.11.2019 14:00:00 17,5 9,8 9 5 S 1009,1 -
14.11.2019 13:00:00 16,8 9,4 9 5 SSW 1009,4 -
14.11.2019 12:00:00 17,7 9,5 9 5 SSW 1009,6 -
14.11.2019 11:00:00 16,1 8,0 5 3 SSE 1010,3 -
14.11.2019 10:00:00 14,6 10,4 4 2 WSW 1010,4 -
14.11.2019 09:00:00 12,2 9,2 5 3 W 1010,4 -
14.11.2019 08:00:00 10,7 8,3 8 4 W 1010,7 -
14.11.2019 07:00:00 8,3 4,6 4 2 SW 1010,9 -
14.11.2019 06:00:00 9,7 5,6 4 2 N 1010,1 -
14.11.2019 05:00:00 9,2 5,3 5 3 N 1010,2 -
14.11.2019 04:00:00 8,8 3,8 5 3 NNW 1010,2 -
14.11.2019 03:00:00 10,8 4,9 13 7 WNW 1009,7 -
14.11.2019 02:00:00 10,7 5,6 16 9 W 1010,0 -
14.11.2019 01:00:00 10,8 6,9 22 12 WNW 1009,7 -
14.11.2019 00:00:00 9,4 7,8 15 8 WNW 1010,2 -
13.11.2019 23:00:00 9,2 7,6 4 2 NNW 1010,3 -
13.11.2019 22:00:00 10,5 8,6 2 1 NW 1009,8 -
13.11.2019 21:00:00 10,3 8,0 5 3 N 1009,7 -
13.11.2019 20:00:00 11,9 9,6 9 5 WSW 1008,3 -
13.11.2019 19:00:00 11,9 9,6 9 5 WSW 1007,7 -

tt = temperature
td = dewpoint
ff = wind speed
dd = wind direction
ppp = reduced air pressure
rr = precipitation

Next stations